createdAt,value
2019-01-20T00:01:57.701Z,68.30
2019-01-20T00:04:24.751Z,68.26
2019-01-20T00:06:51.771Z,67.97
2019-01-20T00:09:18.833Z,68.03
2019-01-20T00:11:45.879Z,68.29
2019-01-20T00:14:12.919Z,68.61
2019-01-20T00:16:39.967Z,68.89
2019-01-20T00:19:07.014Z,69.01
2019-01-20T00:21:34.065Z,68.87
2019-01-20T00:24:01.098Z,68.58
2019-01-20T00:26:28.133Z,68.71
2019-01-20T00:28:55.184Z,68.83
2019-01-20T00:31:22.204Z,68.71
2019-01-20T00:33:49.231Z,68.59
2019-01-20T00:36:16.292Z,68.45
2019-01-20T00:38:43.339Z,68.44
2019-01-20T00:41:10.404Z,68.35
2019-01-20T00:43:37.471Z,68.21
2019-01-20T00:46:04.505Z,68.10
2019-01-20T00:48:31.569Z,67.99
2019-01-20T00:50:58.612Z,67.83
2019-01-20T00:53:25.670Z,68.12
2019-01-20T00:55:52.702Z,68.11
2019-01-20T00:58:19.735Z,68.23
2019-01-20T01:00:46.764Z,68.15
2019-01-20T01:03:13.806Z,67.98
2019-01-20T01:05:40.868Z,67.92
2019-01-20T01:08:08.824Z,67.88
2019-01-20T01:10:35.870Z,68.08
2019-01-20T01:13:03.223Z,68.09
2019-01-20T01:15:30.292Z,68.00
2019-01-20T01:17:57.353Z,67.89
2019-01-20T01:20:24.413Z,67.79
2019-01-20T01:22:51.452Z,67.74
2019-01-20T01:25:18.517Z,67.71
2019-01-20T01:27:45.536Z,67.68
2019-01-20T01:30:15.510Z,67.73
2019-01-20T01:32:42.534Z,67.87
2019-01-20T01:35:09.583Z,68.05
2019-01-20T01:37:36.633Z,68.05
2019-01-20T01:40:05.073Z,67.93
2019-01-20T01:42:32.109Z,67.81
2019-01-20T01:44:59.134Z,67.84
2019-01-20T01:47:26.162Z,67.87
2019-01-20T01:49:53.189Z,67.90
2019-01-20T01:52:20.202Z,67.80
2019-01-20T01:54:47.243Z,67.78
2019-01-20T01:57:14.291Z,67.62
2019-01-20T01:59:41.391Z,67.52
2019-01-20T02:02:08.429Z,67.58
2019-01-20T02:04:35.458Z,67.37
2019-01-20T02:07:02.494Z,67.45
2019-01-20T02:09:29.538Z,67.60
2019-01-20T02:11:56.584Z,67.65
2019-01-20T02:14:23.629Z,67.52
2019-01-20T02:16:50.681Z,67.19
2019-01-20T02:19:17.717Z,67.75
2019-01-20T02:21:44.747Z,67.96
2019-01-20T02:24:11.775Z,67.92
2019-01-20T02:26:38.803Z,67.84
2019-01-20T02:29:05.849Z,67.70
2019-01-20T02:31:32.875Z,67.73
2019-01-20T02:34:00.012Z,67.68
2019-01-20T02:36:27.032Z,67.59
2019-01-20T02:38:54.074Z,67.45
2019-01-20T02:41:21.102Z,67.31
2019-01-20T02:43:48.131Z,67.32
2019-01-20T02:46:15.228Z,67.23
2019-01-20T02:48:42.283Z,67.22
2019-01-20T02:51:09.348Z,67.36
2019-01-20T02:53:36.393Z,67.47
2019-01-20T02:56:03.516Z,67.59
2019-01-20T02:58:30.545Z,67.65
2019-01-20T03:00:57.574Z,67.65
2019-01-20T03:03:24.636Z,67.52
2019-01-20T03:05:51.668Z,67.48
2019-01-20T03:08:18.734Z,66.99
2019-01-20T03:10:45.764Z,67.34
2019-01-20T03:13:12.807Z,67.62
2019-01-20T03:15:39.911Z,67.71
2019-01-20T03:18:06.986Z,67.68
2019-01-20T03:20:34.052Z,67.94
2019-01-20T03:23:01.064Z,68.06
2019-01-20T03:25:28.138Z,68.02
2019-01-20T03:27:55.145Z,67.94
2019-01-20T03:30:22.487Z,67.85
2019-01-20T03:32:49.517Z,67.75
2019-01-20T03:35:18.840Z,67.82
2019-01-20T03:37:46.067Z,67.92
2019-01-20T03:40:14.399Z,68.15
2019-01-20T03:42:41.428Z,68.47
2019-01-20T03:45:10.336Z,69.01
2019-01-20T03:47:37.439Z,69.29
2019-01-20T03:50:05.310Z,69.51
2019-01-20T03:52:32.355Z,69.69
2019-01-20T03:54:59.385Z,69.75
2019-01-20T03:57:26.414Z,69.83
2019-01-20T03:59:53.446Z,70.09
2019-01-20T04:02:21.780Z,70.24
2019-01-20T04:04:48.803Z,70.49
2019-01-20T04:07:15.816Z,70.79
2019-01-20T04:09:42.859Z,70.98
2019-01-20T04:12:09.974Z,71.07
2019-01-20T04:14:37.017Z,71.19
2019-01-20T04:17:04.083Z,71.21
2019-01-20T04:19:31.161Z,71.28
2019-01-20T04:21:58.193Z,71.22
2019-01-20T04:24:25.217Z,71.11
2019-01-20T04:26:52.251Z,71.00
2019-01-20T04:29:19.277Z,70.81
2019-01-20T04:31:46.305Z,70.76
2019-01-20T04:34:13.324Z,70.65
2019-01-20T04:36:40.380Z,71.00
2019-01-20T04:39:07.411Z,71.34
2019-01-20T04:41:34.782Z,71.59
2019-01-20T04:44:01.813Z,71.51
2019-01-20T04:46:28.833Z,71.44
2019-01-20T04:48:55.883Z,71.36
2019-01-20T04:51:22.891Z,71.26
2019-01-20T04:53:50.129Z,71.16
2019-01-20T04:56:17.141Z,70.96
2019-01-20T04:58:44.217Z,70.77
2019-01-20T05:01:11.248Z,70.40
2019-01-20T05:03:38.292Z,70.22
2019-01-20T05:06:05.333Z,70.11
2019-01-20T05:08:32.396Z,70.04
2019-01-20T05:10:59.414Z,69.85
2019-01-20T05:13:26.423Z,69.81
2019-01-20T05:15:53.455Z,69.97
2019-01-20T05:18:20.526Z,70.41
2019-01-20T05:20:47.570Z,70.70
2019-01-20T05:23:14.604Z,70.52
2019-01-20T05:25:41.648Z,70.67
2019-01-20T05:28:08.666Z,70.58
2019-01-20T05:30:35.687Z,70.70
2019-01-20T05:33:02.716Z,70.68
2019-01-20T05:35:29.740Z,70.64
2019-01-20T05:37:56.790Z,70.62
2019-01-20T05:40:23.828Z,70.76
2019-01-20T05:42:50.851Z,70.65
2019-01-20T05:45:19.895Z,70.42
2019-01-20T05:47:46.925Z,70.67
2019-01-20T05:50:14.072Z,70.70
2019-01-20T05:52:41.114Z,70.25
2019-01-20T05:55:08.613Z,69.96
2019-01-20T05:57:35.643Z,69.98
2019-01-20T06:00:04.645Z,69.84
2019-01-20T06:02:31.688Z,69.84
2019-01-20T06:04:58.721Z,69.68
2019-01-20T06:07:25.759Z,69.57
2019-01-20T06:09:52.786Z,72.60
2019-01-20T06:12:19.843Z,76.69
2019-01-20T06:14:46.902Z,76.56
2019-01-20T06:17:13.912Z,76.31
2019-01-20T06:22:23.299Z,72.86
2019-01-20T06:24:50.348Z,67.91
2019-01-20T06:27:17.394Z,66.47
2019-01-20T06:29:44.450Z,65.88
2019-01-20T06:32:11.481Z,65.46
2019-01-20T06:34:38.519Z,65.40
2019-01-20T06:37:05.572Z,65.39
2019-01-20T06:39:32.803Z,65.90
2019-01-20T06:41:59.857Z,66.01
2019-01-20T06:44:26.909Z,66.10
2019-01-20T06:46:53.981Z,66.04
2019-01-20T06:49:21.052Z,66.12
2019-01-20T06:51:48.090Z,66.15
2019-01-20T06:54:15.145Z,66.38
2019-01-20T06:56:42.194Z,66.93
2019-01-20T06:59:09.260Z,67.38
2019-01-20T07:01:36.396Z,70.64
2019-01-20T07:04:03.559Z,71.83
2019-01-20T07:06:30.676Z,72.56
2019-01-20T07:08:57.775Z,69.54
2019-01-20T07:11:24.822Z,67.17
2019-01-20T07:13:51.951Z,67.39
2019-01-20T07:16:19.020Z,62.74
2019-01-20T07:18:46.072Z,61.98
2019-01-20T07:21:13.187Z,62.14
2019-01-20T07:23:40.258Z,62.55
2019-01-20T07:26:07.407Z,62.57
2019-01-20T07:28:34.528Z,63.12
2019-01-20T07:31:01.616Z,63.65
2019-01-20T07:33:28.670Z,63.91
2019-01-20T07:35:55.733Z,63.87
2019-01-20T07:38:22.787Z,63.73
2019-01-20T07:40:49.832Z,64.16
2019-01-20T07:43:17.266Z,64.28
2019-01-20T07:45:44.324Z,64.89
2019-01-20T07:48:11.386Z,65.19
2019-01-20T07:50:38.426Z,65.18
2019-01-20T07:53:05.488Z,65.19
2019-01-20T07:55:32.568Z,65.32
2019-01-20T07:57:59.673Z,65.54
2019-01-20T08:00:26.750Z,65.68
2019-01-20T08:02:53.823Z,65.60
2019-01-20T08:05:20.863Z,65.71
2019-01-20T08:07:48.086Z,65.65
2019-01-20T08:10:17.429Z,65.64
2019-01-20T08:12:44.465Z,65.73
2019-01-20T08:15:11.646Z,65.86
2019-01-20T08:17:38.690Z,66.64
2019-01-20T08:20:08.572Z,67.02
2019-01-20T08:22:35.643Z,67.45
2019-01-20T08:25:02.953Z,67.49
2019-01-20T08:27:30.000Z,67.29
2019-01-20T08:29:57.036Z,67.26
2019-01-20T08:32:24.096Z,67.55
2019-01-20T08:34:51.144Z,67.24
2019-01-20T08:37:18.253Z,67.19
2019-01-20T08:39:45.351Z,67.46
2019-01-20T08:42:12.649Z,67.25
2019-01-20T08:44:41.887Z,66.87
2019-01-20T08:47:24.017Z,66.59
2019-01-20T08:49:51.087Z,69.21
2019-01-20T08:52:18.189Z,70.45
2019-01-20T08:54:45.213Z,70.32
2019-01-20T08:57:12.275Z,69.79
2019-01-20T08:59:39.313Z,69.72
2019-01-20T09:02:06.599Z,69.30
2019-01-20T09:04:33.651Z,69.18
2019-01-20T09:07:00.704Z,68.62
2019-01-20T09:09:27.775Z,68.40
2019-01-20T09:11:54.851Z,68.43
2019-01-20T09:14:21.941Z,68.37
2019-01-20T09:16:49.005Z,68.29
2019-01-20T09:19:16.054Z,68.41
2019-01-20T09:21:43.134Z,68.35
2019-01-20T09:24:10.195Z,68.39
2019-01-20T09:26:37.242Z,68.46
2019-01-20T09:29:04.312Z,68.67
2019-01-20T09:31:31.404Z,68.77
2019-01-20T09:33:58.455Z,68.80
2019-01-20T09:36:25.788Z,68.96
2019-01-20T09:38:52.830Z,69.03
2019-01-20T09:41:19.885Z,69.44
2019-01-20T09:43:47.561Z,69.67
2019-01-20T09:46:16.313Z,70.00
2019-01-20T09:48:43.507Z,70.21
2019-01-20T09:51:10.556Z,70.16
2019-01-20T09:53:37.657Z,70.27
2019-01-20T09:56:04.826Z,70.38
2019-01-20T09:58:31.915Z,70.38
2019-01-20T10:00:58.994Z,70.40
2019-01-20T10:03:26.105Z,70.43
2019-01-20T10:05:53.490Z,70.45
2019-01-20T10:08:20.599Z,70.40
2019-01-20T10:10:47.688Z,70.39
2019-01-20T10:13:14.789Z,70.43
2019-01-20T10:15:41.868Z,70.33
2019-01-20T10:18:08.960Z,70.20
2019-01-20T10:20:36.009Z,70.22
2019-01-20T10:23:03.098Z,70.11
2019-01-20T10:25:30.153Z,70.19
2019-01-20T10:27:57.261Z,70.16
2019-01-20T10:30:32.027Z,70.22
2019-01-20T10:32:59.344Z,70.04
2019-01-20T10:35:46.065Z,70.03
2019-01-20T10:38:13.345Z,70.17
2019-01-20T10:40:40.444Z,70.08
2019-01-20T10:43:07.550Z,70.17
2019-01-20T10:45:34.619Z,70.24
2019-01-20T10:48:01.656Z,70.18
2019-01-20T10:50:28.742Z,70.04
2019-01-20T10:52:55.821Z,70.02
2019-01-20T10:55:22.904Z,69.93
2019-01-20T10:57:49.992Z,69.79
2019-01-20T11:00:26.221Z,69.67
2019-01-20T11:02:53.299Z,69.64
2019-01-20T11:05:24.594Z,69.44
2019-01-20T11:07:49.396Z,69.41
2019-01-20T11:10:16.529Z,69.33
2019-01-20T11:12:43.970Z,69.15
2019-01-20T11:15:11.162Z,68.93
2019-01-20T11:17:38.238Z,68.80
2019-01-20T11:20:07.589Z,68.70
2019-01-20T11:22:34.693Z,68.40
2019-01-20T11:25:01.968Z,68.20
2019-01-20T11:27:29.330Z,67.76
2019-01-20T11:29:56.564Z,67.57
2019-01-20T11:32:23.694Z,67.55
2019-01-20T11:34:51.091Z,67.45
2019-01-20T11:37:18.176Z,67.28
2019-01-20T11:39:45.360Z,67.20
2019-01-20T11:42:12.548Z,67.12
2019-01-20T11:44:39.617Z,66.90
2019-01-20T11:47:06.741Z,66.62
2019-01-20T11:49:34.218Z,66.44
2019-01-20T11:52:01.659Z,66.37
2019-01-20T11:54:28.976Z,66.18
2019-01-20T11:56:56.148Z,65.93
2019-01-20T11:59:23.611Z,65.76
2019-01-20T12:01:50.995Z,65.72
2019-01-20T12:04:18.167Z,65.65
2019-01-20T12:06:45.448Z,65.47
2019-01-20T12:09:12.907Z,65.18
2019-01-20T12:11:40.037Z,65.02
2019-01-20T12:14:07.212Z,64.66
2019-01-20T12:16:34.298Z,64.24
2019-01-20T12:19:01.450Z,63.97
2019-01-20T12:21:28.540Z,63.67
2019-01-20T12:23:55.670Z,63.47
2019-01-20T12:26:23.649Z,62.85
2019-01-20T12:28:50.804Z,62.34
2019-01-20T12:31:18.292Z,61.95
2019-01-20T12:33:45.736Z,61.99
2019-01-20T12:36:12.879Z,61.62
2019-01-20T12:38:40.043Z,60.65
2019-01-20T12:41:07.151Z,61.05
2019-01-20T12:43:34.264Z,61.44
2019-01-20T12:46:01.408Z,60.92
2019-01-20T12:48:28.536Z,60.92
2019-01-20T12:50:55.901Z,60.70
2019-01-20T12:53:23.050Z,60.91
2019-01-20T12:55:50.793Z,60.70
2019-01-20T12:58:18.407Z,60.54
2019-01-20T13:00:45.520Z,60.61
2019-01-20T13:03:12.652Z,60.48
2019-01-20T13:05:39.839Z,60.08
2019-01-20T13:08:06.997Z,60.02
2019-01-20T13:10:34.110Z,60.05
2019-01-20T13:13:02.813Z,60.24
2019-01-20T13:15:29.972Z,59.82
2019-01-20T13:17:57.394Z,60.08
2019-01-20T13:20:24.695Z,60.01
2019-01-20T13:22:51.842Z,59.91
2019-01-20T13:25:26.832Z,59.67
2019-01-20T13:27:53.986Z,59.67
2019-01-20T13:30:22.804Z,59.70
2019-01-20T13:32:49.964Z,59.42
2019-01-20T13:35:18.240Z,59.31
2019-01-20T13:37:47.591Z,59.62
2019-01-20T13:40:24.570Z,60.03
2019-01-20T13:42:54.022Z,60.65
2019-01-20T13:45:21.142Z,61.44
2019-01-20T13:47:48.778Z,61.93
2019-01-20T13:50:18.089Z,62.26
2019-01-20T13:52:45.195Z,62.13
2019-01-20T13:55:13.489Z,62.29
2019-01-20T13:57:40.585Z,62.63
2019-01-20T14:00:13.001Z,62.67
2019-01-20T14:02:40.137Z,62.69
2019-01-20T14:05:07.333Z,63.20
2019-01-20T14:07:34.723Z,63.20
2019-01-20T14:10:01.937Z,63.39
2019-01-20T14:12:29.041Z,63.12
2019-01-20T14:14:56.182Z,63.38
2019-01-20T14:17:23.361Z,63.46
2019-01-20T14:19:50.664Z,63.28
2019-01-20T14:22:17.851Z,63.20
2019-01-20T14:24:44.978Z,63.51
2019-01-20T14:27:12.139Z,63.29
2019-01-20T14:29:39.287Z,63.42
2019-01-20T14:32:06.736Z,63.61
2019-01-20T14:34:33.841Z,64.06
2019-01-20T14:37:01.013Z,64.06
2019-01-20T14:39:28.395Z,64.21
2019-01-20T14:41:55.551Z,64.41
2019-01-20T14:44:22.735Z,64.48
2019-01-20T14:46:50.451Z,64.55
2019-01-20T14:49:19.043Z,64.10
2019-01-20T14:51:47.627Z,64.25
2019-01-20T14:54:14.978Z,64.22
2019-01-20T14:56:42.675Z,64.34
2019-01-20T14:59:10.139Z,64.43
2019-01-20T15:01:37.669Z,64.64
2019-01-20T15:04:05.168Z,64.37
2019-01-20T15:06:32.366Z,64.34
2019-01-20T15:08:59.606Z,64.50
2019-01-20T15:11:26.889Z,64.66
2019-01-20T15:13:55.149Z,64.68
2019-01-20T15:16:22.531Z,64.67
2019-01-20T15:18:49.699Z,64.81
2019-01-20T15:21:17.026Z,64.93
2019-01-20T15:23:45.874Z,65.11
2019-01-20T15:26:13.072Z,65.27
2019-01-20T15:28:40.259Z,70.14
2019-01-20T15:31:07.659Z,68.60
2019-01-20T15:33:35.794Z,71.65
2019-01-20T15:36:03.203Z,71.54
2019-01-20T15:38:30.811Z,68.77
2019-01-20T15:40:58.970Z,66.16
2019-01-20T15:43:26.187Z,60.35
2019-01-20T15:45:53.384Z,59.69
2019-01-20T15:48:21.612Z,60.17
2019-01-20T15:50:49.441Z,60.95
2019-01-20T15:53:16.733Z,61.63
2019-01-20T15:55:44.393Z,62.04
2019-01-20T15:58:11.819Z,62.51
2019-01-20T16:00:39.363Z,62.93
2019-01-20T16:03:09.797Z,63.37
2019-01-20T16:05:37.274Z,63.65
2019-01-20T16:08:05.894Z,63.99
2019-01-20T16:10:33.637Z,64.22
2019-01-20T16:13:03.225Z,64.64
2019-01-20T16:15:35.810Z,64.96
2019-01-20T16:18:03.746Z,65.16
2019-01-20T16:20:31.684Z,65.44
2019-01-20T16:22:59.784Z,65.69
2019-01-20T16:25:29.348Z,65.94
2019-01-20T16:27:56.588Z,66.10
2019-01-20T16:30:26.256Z,66.37
2019-01-20T16:32:53.824Z,66.59
2019-01-20T16:35:22.932Z,66.80
2019-01-20T16:37:52.053Z,66.96
2019-01-20T16:40:23.283Z,67.07
2019-01-20T16:42:50.755Z,67.21
2019-01-20T16:45:31.541Z,70.88
2019-01-20T16:47:54.336Z,70.88
2019-01-20T16:50:22.392Z,70.85
2019-01-20T16:52:54.584Z,67.92
2019-01-20T16:55:19.137Z,66.73
2019-01-20T16:57:47.003Z,65.83
2019-01-20T17:00:26.960Z,65.47
2019-01-20T17:02:55.083Z,65.63
2019-01-20T17:05:26.552Z,65.68
2019-01-20T17:07:51.708Z,65.57
2019-01-20T17:10:24.087Z,65.94
2019-01-20T17:12:54.266Z,65.89
2019-01-20T17:15:24.201Z,65.85
2019-01-20T17:17:51.864Z,66.08
2019-01-20T17:20:20.257Z,66.07
2019-01-20T17:22:49.014Z,66.41
2019-01-20T17:25:17.034Z,66.41
2019-01-20T17:27:48.124Z,66.52
2019-01-20T17:30:21.018Z,66.83
2019-01-20T17:32:48.799Z,66.83
2019-01-20T17:35:16.675Z,66.91
2019-01-20T17:37:45.924Z,67.12
2019-01-20T17:40:16.147Z,67.23
2019-01-20T17:42:44.000Z,67.30
2019-01-20T17:45:13.230Z,67.54
2019-01-20T17:47:41.363Z,67.54
2019-01-20T17:50:15.946Z,67.60
2019-01-20T17:52:45.796Z,67.76
2019-01-20T17:55:13.518Z,67.88
2019-01-20T17:57:42.743Z,67.86
2019-01-20T18:00:16.257Z,67.90
2019-01-20T18:02:44.400Z,67.80
2019-01-20T18:05:13.539Z,67.80
2019-01-20T18:07:41.288Z,67.94
2019-01-20T18:10:10.630Z,67.84
2019-01-20T18:12:38.207Z,67.84
2019-01-20T18:15:08.373Z,68.00
2019-01-20T18:17:38.719Z,68.01
2019-01-20T18:20:10.231Z,69.52
2019-01-20T18:22:37.991Z,69.14
2019-01-20T18:25:08.863Z,69.16
2019-01-20T18:27:37.099Z,68.55
2019-01-20T18:30:06.988Z,68.16
2019-01-20T18:32:35.140Z,67.37
2019-01-20T18:35:02.817Z,67.08
2019-01-20T18:37:31.752Z,66.67
2019-01-20T18:39:59.507Z,66.67
2019-01-20T18:42:29.169Z,67.40
2019-01-20T18:44:57.822Z,67.40
2019-01-20T18:47:25.555Z,68.00
2019-01-20T18:49:56.055Z,68.95
2019-01-20T18:52:24.084Z,68.95
2019-01-20T18:54:52.729Z,69.18
2019-01-20T18:57:21.379Z,69.52
2019-01-20T18:59:49.959Z,69.75
2019-01-20T19:02:18.294Z,69.95
2019-01-20T19:04:46.826Z,70.06
2019-01-20T19:07:15.283Z,70.33
2019-01-20T19:09:44.077Z,70.46
2019-01-20T19:12:12.776Z,70.54
2019-01-20T19:14:41.619Z,70.86
2019-01-20T19:17:10.482Z,70.90
2019-01-20T19:19:39.391Z,71.09
2019-01-20T19:22:08.696Z,71.11
2019-01-20T19:24:41.732Z,71.25
2019-01-20T19:27:09.943Z,71.42
2019-01-20T19:29:40.476Z,71.66
2019-01-20T19:32:08.456Z,71.92
2019-01-20T19:34:37.832Z,72.06
2019-01-20T19:37:07.699Z,72.24
2019-01-20T19:39:35.753Z,72.24
2019-01-20T19:42:03.769Z,72.21
2019-01-20T19:44:35.174Z,72.27
2019-01-20T19:47:04.221Z,72.20
2019-01-20T19:49:36.758Z,72.19
2019-01-20T19:52:04.609Z,72.29
2019-01-20T19:54:32.962Z,72.32
2019-01-20T19:57:04.497Z,72.43
2019-01-20T19:59:31.996Z,72.41
2019-01-20T20:02:05.373Z,72.41
2019-01-20T20:04:33.794Z,72.38
2019-01-20T20:07:04.378Z,72.34
2019-01-20T20:09:36.079Z,72.32
2019-01-20T20:12:05.022Z,72.31
2019-01-20T20:14:32.489Z,72.24
2019-01-20T20:17:02.287Z,72.28
2019-01-20T20:19:32.388Z,72.33
2019-01-20T20:22:00.612Z,72.36
2019-01-20T20:24:28.788Z,72.39
2019-01-20T20:26:56.301Z,72.37
2019-01-20T20:29:24.381Z,72.21
2019-01-20T20:31:52.428Z,72.15
2019-01-20T20:34:22.245Z,72.09
2019-01-20T20:36:51.808Z,72.17
2019-01-20T20:39:20.796Z,72.27
2019-01-20T20:41:52.878Z,72.33
2019-01-20T20:44:20.338Z,72.31
2019-01-20T20:46:49.596Z,72.48
2019-01-20T20:49:17.710Z,72.28
2019-01-20T20:51:45.347Z,72.22
2019-01-20T20:54:12.776Z,72.19
2019-01-20T20:56:40.247Z,72.33
2019-01-20T20:59:07.509Z,72.23
2019-01-20T21:01:35.310Z,72.27
2019-01-20T21:04:05.044Z,72.33
2019-01-20T21:06:32.476Z,72.33
2019-01-20T21:09:00.146Z,72.43
2019-01-20T21:11:27.617Z,72.49
2019-01-20T21:13:56.265Z,72.40
2019-01-20T21:16:23.516Z,72.32
2019-01-20T21:18:50.704Z,72.34
2019-01-20T21:21:17.887Z,72.38
2019-01-20T21:23:45.372Z,72.45
2019-01-20T21:26:12.607Z,72.47
2019-01-20T21:28:40.337Z,72.43
2019-01-20T21:31:07.479Z,72.34
2019-01-20T21:33:34.679Z,72.32
2019-01-20T21:36:01.827Z,72.33
2019-01-20T21:38:28.958Z,72.37
2019-01-20T21:40:56.409Z,72.39
2019-01-20T21:43:23.856Z,72.34
2019-01-20T21:45:50.982Z,72.25
2019-01-20T21:48:18.110Z,72.21
2019-01-20T21:50:45.220Z,72.27
2019-01-20T21:53:12.342Z,72.36
2019-01-20T21:55:39.415Z,72.24
2019-01-20T21:58:06.506Z,72.29
2019-01-20T22:00:34.613Z,72.35
2019-01-20T22:03:01.724Z,72.39
2019-01-20T22:05:28.835Z,72.22
2019-01-20T22:07:55.951Z,72.28
2019-01-20T22:10:24.121Z,72.33
2019-01-20T22:12:51.217Z,72.39
2019-01-20T22:15:18.380Z,72.32
2019-01-20T22:17:46.049Z,72.30
2019-01-20T22:20:20.401Z,72.28
2019-01-20T22:22:47.485Z,72.27
2019-01-20T22:25:14.793Z,72.21
2019-01-20T22:27:41.909Z,72.28
2019-01-20T22:30:14.767Z,72.29
2019-01-20T22:32:41.799Z,72.37
2019-01-20T22:35:09.562Z,72.40
2019-01-20T22:37:36.650Z,72.44
2019-01-20T22:40:04.757Z,72.42
2019-01-20T22:42:31.808Z,72.36
2019-01-20T22:44:58.859Z,72.34
2019-01-20T22:47:25.885Z,72.28
2019-01-20T22:49:52.919Z,72.29
2019-01-20T22:52:20.069Z,72.48
2019-01-20T22:54:47.081Z,72.43
2019-01-20T22:57:14.119Z,72.42
2019-01-20T22:59:41.157Z,72.39
2019-01-20T23:02:08.230Z,72.29
2019-01-20T23:04:35.266Z,72.12
2019-01-20T23:07:02.354Z,72.04
2019-01-20T23:09:29.389Z,72.21
2019-01-20T23:11:56.444Z,72.24
2019-01-20T23:14:26.251Z,72.38
2019-01-20T23:16:53.289Z,72.37
2019-01-20T23:19:20.311Z,72.38
2019-01-20T23:21:47.351Z,72.33
2019-01-20T23:24:14.375Z,72.42
2019-01-20T23:26:41.432Z,72.38
2019-01-20T23:29:08.475Z,72.37
2019-01-20T23:31:35.520Z,72.37
2019-01-20T23:34:02.578Z,72.42
2019-01-20T23:36:29.615Z,72.43
2019-01-20T23:38:56.662Z,72.40
2019-01-20T23:41:23.702Z,72.42
2019-01-20T23:43:50.857Z,72.38
2019-01-20T23:46:17.894Z,72.25
2019-01-20T23:48:44.949Z,72.35
2019-01-20T23:51:11.988Z,72.37
2019-01-20T23:53:39.128Z,72.44
2019-01-20T23:56:06.167Z,72.50
2019-01-20T23:58:33.189Z,72.56
